Terminal Aerodrome Forecast
Issued by NWS Charleston, WV

Current Version | Previous Version | Text Only | Print | Product List | Glossary Off
Versions: 1 2 3 4 5 6 7 8 9 10 11 12 13 14 15 16 17

696
FTUS41 KRLX 230542
TAFEKN
TAF
KEKN 230542Z 2306/2406 16005KT P6SM SCT250
     FM231300 16010G18KT P6SM FEW250
     FM231600 14016G27KT P6SM FEW250
     FM240000 14012G24KT P6SM -SHRA OVC070
     FM240100 14009G19KT P6SM OVC070=

USA.gov is the U.S. government's official web portal to all federal, state and local government web resources and services.